Time;durP1;ratioP1;P1;durP2;ratioP2;P2;SDS_P1;SDS_P2;PMS_P1;PMS_P2;Temp;Humidity;BMP_temperature;BMP_pressure;BME280_temperature;BME280_humidity;BME280_pressure;Samples;Min_cycle;Max_cycle;Signal;HPM_P1;HPM_P2
2022/12/18 00:00:24;;;;;;;52.17;21.33;;;;;;;;;;5031319;28;20425;-77
2022/12/18 00:02:50;;;;;;;57.97;23.53;;;;;;;;;;5031704;28;20811;-76
2022/12/18 00:05:15;;;;;;;63.97;22.00;;;;;;;;;;5030009;28;20182;-76
2022/12/18 00:07:40;;;;;;;60.97;22.13;;;;;;;;;;5029717;28;20981;-77
2022/12/18 00:10:06;;;;;;;47.67;20.50;;;;;;;;;;5031344;28;20240;-76
2022/12/18 00:12:31;;;;;;;49.10;22.73;;;;;;;;;;5035898;28;20202;-76
2022/12/18 00:14:56;;;;;;;49.30;20.60;;;;;;;;;;5030581;28;20205;-76
2022/12/18 00:17:21;;;;;;;53.30;22.03;;;;;;;;;;5030255;28;21068;-77
2022/12/18 00:19:46;;;;;;;51.17;20.87;;;;;;;;;;5028415;28;20536;-76
2022/12/18 00:22:11;;;;;;;50.93;20.50;;;;;;;;;;5028919;28;20201;-77
2022/12/18 00:24:37;;;;;;;67.13;24.37;;;;;;;;;;5032275;28;20186;-76
2022/12/18 00:27:02;;;;;;;57.50;23.03;;;;;;;;;;5031600;28;20189;-76
2022/12/18 00:29:27;;;;;;;62.43;22.63;;;;;;;;;;5031368;28;20195;-77
2022/12/18 00:31:53;;;;;;;48.90;21.70;;;;;;;;;;5030002;28;20202;-77
2022/12/18 00:34:18;;;;;;;42.23;19.33;;;;;;;;;;5030474;28;20178;-77
2022/12/18 00:36:43;;;;;;;46.20;21.13;;;;;;;;;;5029172;28;20198;-77
2022/12/18 00:39:09;;;;;;;45.97;22.67;;;;;;;;;;5031073;28;20178;-77
2022/12/18 00:44:19;;;;;;;57.30;20.37;;;;;;;;;;5027119;28;20181;-76
2022/12/18 00:46:45;;;;;;;47.60;22.27;;;;;;;;;;5029711;28;20186;-77
2022/12/18 00:49:13;;;;;;;44.43;20.10;;;;;;;;;;5030800;28;20185;-77
2022/12/18 00:51:39;;;;;;;48.13;20.47;;;;;;;;;;5037327;28;20170;-77
2022/12/18 00:54:04;;;;;;;46.03;18.60;;;;;;;;;;5029667;28;20192;-76
2022/12/18 00:56:29;;;;;;;55.47;21.03;;;;;;;;;;5028638;28;20200;-76
2022/12/18 00:58:55;;;;;;;53.83;20.77;;;;;;;;;;5028349;28;20171;-76
2022/12/18 01:01:20;;;;;;;50.03;20.93;;;;;;;;;;5020852;28;20200;-77
2022/12/18 01:03:46;;;;;;;49.70;20.00;;;;;;;;;;5029930;28;20201;-76
2022/12/18 01:06:12;;;;;;;47.53;21.13;;;;;;;;;;5030823;28;20189;-76
2022/12/18 01:08:38;;;;;;;55.57;22.17;;;;;;;;;;5028481;28;20269;-76
2022/12/18 01:11:10;;;;;;;42.30;18.97;;;;;;;;;;5033447;28;20252;-76
2022/12/18 01:13:35;;;;;;;49.60;20.07;;;;;;;;;;5029902;28;20229;-76
2022/12/18 01:16:01;;;;;;;51.50;20.00;;;;;;;;;;5026998;28;20667;-76
2022/12/18 01:18:26;;;;;;;42.57;19.07;;;;;;;;;;5033498;28;20730;-76
2022/12/18 01:20:51;;;;;;;46.40;19.40;;;;;;;;;;5027056;28;20547;-77
2022/12/18 01:23:16;;;;;;;50.77;19.53;;;;;;;;;;5037829;28;20677;-76
2022/12/18 01:25:42;;;;;;;47.10;22.20;;;;;;;;;;5031818;28;20214;-76
2022/12/18 01:28:07;;;;;;;46.90;21.53;;;;;;;;;;5030275;28;20228;-76
2022/12/18 01:30:32;;;;;;;48.90;21.07;;;;;;;;;;5026124;28;20175;-76
2022/12/18 01:32:57;;;;;;;49.73;20.20;;;;;;;;;;5023241;28;20213;-76
2022/12/18 01:35:22;;;;;;;57.83;21.17;;;;;;;;;;5030688;28;20190;-76
2022/12/18 01:37:47;;;;;;;45.37;19.63;;;;;;;;;;5031598;28;20198;-76
2022/12/18 01:40:13;;;;;;;47.43;19.37;;;;;;;;;;5031238;28;20598;-76
2022/12/18 01:42:38;;;;;;;45.03;20.40;;;;;;;;;;5029473;28;20664;-77
2022/12/18 01:45:21;;;;;;;53.60;20.10;;;;;;;;;;5030421;28;20178;-76
2022/12/18 01:47:46;;;;;;;47.17;20.30;;;;;;;;;;5024305;28;20198;-76
2022/12/18 01:50:16;;;;;;;57.57;21.63;;;;;;;;;;5023697;28;20193;-76
2022/12/18 01:52:43;;;;;;;52.93;20.63;;;;;;;;;;5029704;28;20277;-76
2022/12/18 01:55:09;;;;;;;52.77;21.27;;;;;;;;;;5028901;28;20230;-76
2022/12/18 01:57:34;;;;;;;47.20;20.67;;;;;;;;;;5028693;28;20174;-76
2022/12/18 02:00:01;;;;;;;48.13;18.40;;;;;;;;;;5030992;28;20171;-76
2022/12/18 02:02:27;;;;;;;46.77;20.40;;;;;;;;;;5029024;28;20676;-76
2022/12/18 02:04:52;;;;;;;52.03;20.77;;;;;;;;;;5031027;28;20239;-76
2022/12/18 02:07:36;;;;;;;50.53;21.70;;;;;;;;;;5022687;28;20718;-76
2022/12/18 02:10:07;;;;;;;45.90;20.37;;;;;;;;;;5031110;28;20182;-76
2022/12/18 02:12:56;;;;;;;41.50;19.47;;;;;;;;;;5028981;28;20198;-76
2022/12/18 02:15:24;;;;;;;47.43;19.10;;;;;;;;;;5030374;28;20718;-76
2022/12/18 02:17:56;;;;;;;45.33;20.40;;;;;;;;;;5029717;28;20197;-76
2022/12/18 02:20:28;;;;;;;43.07;20.43;;;;;;;;;;5031082;28;20663;-76
2022/12/18 02:23:12;;;;;;;39.77;18.50;;;;;;;;;;5030724;28;20193;-76
2022/12/18 02:25:56;;;;;;;50.50;19.73;;;;;;;;;;5030007;28;20190;-76
2022/12/18 02:28:23;;;;;;;45.43;19.57;;;;;;;;;;5032029;28;20345;-76
2022/12/18 02:30:50;;;;;;;46.17;21.43;;;;;;;;;;5036528;28;20228;-76
2022/12/18 02:33:16;;;;;;;41.67;19.23;;;;;;;;;;5038122;28;20304;-76
2022/12/18 02:35:42;;;;;;;43.63;18.77;;;;;;;;;;5039514;28;20209;-76
2022/12/18 02:38:08;;;;;;;42.23;19.77;;;;;;;;;;5037333;28;20268;-76
2022/12/18 02:40:34;;;;;;;42.53;20.83;;;;;;;;;;5037122;28;20197;-76
2022/12/18 02:43:06;;;;;;;56.20;21.60;;;;;;;;;;5037966;28;20195;-76
2022/12/18 02:45:32;;;;;;;43.33;19.47;;;;;;;;;;5037858;28;20200;-76
2022/12/18 02:47:57;;;;;;;43.27;20.63;;;;;;;;;;5031964;28;20292;-76
2022/12/18 02:50:30;;;;;;;47.47;19.70;;;;;;;;;;5029211;28;20678;-76
2022/12/18 02:53:01;;;;;;;43.17;18.80;;;;;;;;;;5030919;28;20194;-76
2022/12/18 02:55:47;;;;;;;39.80;19.20;;;;;;;;;;5030469;28;20235;-76
2022/12/18 02:58:15;;;;;;;40.30;18.77;;;;;;;;;;5033228;28;20186;-76
2022/12/18 03:00:42;;;;;;;40.27;18.77;;;;;;;;;;5029084;28;20178;-76
2022/12/18 03:03:13;;;;;;;45.37;20.63;;;;;;;;;;5027976;28;20202;-76
2022/12/18 03:05:57;;;;;;;45.27;19.93;;;;;;;;;;5023252;28;20749;-76
2022/12/18 03:08:25;;;;;;;47.23;19.83;;;;;;;;;;5022713;28;20203;-76
2022/12/18 03:10:53;;;;;;;42.63;19.30;;;;;;;;;;5029151;28;20237;-76
2022/12/18 03:13:22;;;;;;;40.03;17.67;;;;;;;;;;5027683;28;20268;-76
2022/12/18 03:15:49;;;;;;;46.27;20.40;;;;;;;;;;5029809;28;20182;-76
2022/12/18 03:18:23;;;;;;;42.53;18.53;;;;;;;;;;5026293;28;20213;-76
2022/12/18 03:20:49;;;;;;;44.93;21.33;;;;;;;;;;5029485;28;20670;-76
2022/12/18 03:23:18;;;;;;;49.97;20.10;;;;;;;;;;5030596;28;20202;-76
2022/12/18 03:25:44;;;;;;;44.87;18.47;;;;;;;;;;5019617;28;20548;-76
2022/12/18 03:28:11;;;;;;;46.43;19.50;;;;;;;;;;5031371;28;20198;-76
2022/12/18 03:30:38;;;;;;;53.13;19.67;;;;;;;;;;5033570;28;20178;-76
2022/12/18 03:33:21;;;;;;;47.23;18.73;;;;;;;;;;5045285;22;20304;-68
2022/12/18 03:35:46;;;;;;;43.40;19.13;;;;;;;;;;5028335;28;20194;-69
2022/12/18 03:38:12;;;;;;;46.27;19.23;;;;;;;;;;5032876;28;20188;-68
2022/12/18 03:40:40;;;;;;;47.07;19.83;;;;;;;;;;5032130;28;20269;-68
2022/12/18 03:43:10;;;;;;;47.87;18.73;;;;;;;;;;5026235;28;20248;-68
2022/12/18 03:45:41;;;;;;;45.97;19.10;;;;;;;;;;5031829;28;20239;-68
2022/12/18 03:48:16;;;;;;;48.80;18.83;;;;;;;;;;5028808;28;20244;-69
2022/12/18 03:50:59;;;;;;;41.83;19.13;;;;;;;;;;5031610;28;20647;-68
2022/12/18 03:53:42;;;;;;;42.00;18.87;;;;;;;;;;5033432;28;20202;-68
2022/12/18 03:56:08;;;;;;;41.50;18.53;;;;;;;;;;5031856;28;20178;-68
2022/12/18 03:58:35;;;;;;;39.93;18.83;;;;;;;;;;5033460;28;20182;-68
2022/12/18 04:01:02;;;;;;;45.27;19.87;;;;;;;;;;5024174;28;20275;-69
2022/12/18 04:03:29;;;;;;;42.07;17.77;;;;;;;;;;5032416;28;20202;-68
2022/12/18 04:05:55;;;;;;;41.70;18.20;;;;;;;;;;5032190;28;20251;-68
2022/12/18 04:08:21;;;;;;;40.93;18.90;;;;;;;;;;5032719;28;20210;-70
2022/12/18 04:10:46;;;;;;;36.30;16.73;;;;;;;;;;5032756;28;20622;-69
2022/12/18 04:13:11;;;;;;;42.80;18.17;;;;;;;;;;5032244;28;20203;-69
2022/12/18 04:15:37;;;;;;;39.47;18.90;;;;;;;;;;5033909;28;20577;-69
2022/12/18 04:18:02;;;;;;;41.13;19.30;;;;;;;;;;5032496;28;20202;-69
2022/12/18 04:20:28;;;;;;;43.03;17.50;;;;;;;;;;5031982;28;20431;-69
2022/12/18 04:22:53;;;;;;;38.43;18.20;;;;;;;;;;5032343;28;20271;-69
2022/12/18 04:25:18;;;;;;;36.87;18.97;;;;;;;;;;5031680;28;20259;-69
2022/12/18 04:27:43;;;;;;;43.43;18.37;;;;;;;;;;5033020;28;20193;-69
2022/12/18 04:30:09;;;;;;;43.20;19.97;;;;;;;;;;5032579;28;20174;-69
2022/12/18 04:32:34;;;;;;;41.23;19.10;;;;;;;;;;5031969;28;20228;-69
2022/12/18 04:34:59;;;;;;;41.83;17.97;;;;;;;;;;5027907;28;20177;-68
2022/12/18 04:37:24;;;;;;;40.73;19.43;;;;;;;;;;5030811;28;20234;-69
2022/12/18 04:39:50;;;;;;;40.27;17.37;;;;;;;;;;5033349;28;20739;-69
2022/12/18 04:42:15;;;;;;;36.97;19.37;;;;;;;;;;5032016;28;20610;-69
2022/12/18 04:44:40;;;;;;;44.57;19.90;;;;;;;;;;5032103;28;20175;-70
2022/12/18 04:47:06;;;;;;;40.33;21.07;;;;;;;;;;5031565;28;20234;-69
2022/12/18 04:49:31;;;;;;;36.17;21.23;;;;;;;;;;5031263;28;20171;-69
2022/12/18 04:51:56;;;;;;;46.90;21.43;;;;;;;;;;5030557;28;20220;-68
2022/12/18 04:54:21;;;;;;;49.40;23.10;;;;;;;;;;5030365;28;20171;-69
2022/12/18 04:56:47;;;;;;;52.17;21.67;;;;;;;;;;5030054;28;20613;-68
2022/12/18 04:59:12;;;;;;;48.47;21.33;;;;;;;;;;5030497;28;20566;-68
2022/12/18 05:01:37;;;;;;;44.07;22.30;;;;;;;;;;5031946;28;20677;-69
2022/12/18 05:04:03;;;;;;;40.10;21.87;;;;;;;;;;5033215;28;20287;-68
2022/12/18 05:06:28;;;;;;;44.77;23.57;;;;;;;;;;5033206;28;20233;-68
2022/12/18 05:08:53;;;;;;;43.47;24.30;;;;;;;;;;5034106;28;20201;-68
2022/12/18 05:11:18;;;;;;;53.43;24.23;;;;;;;;;;5034328;28;20275;-68
2022/12/18 05:13:44;;;;;;;41.57;22.67;;;;;;;;;;5038400;28;20550;-68
2022/12/18 05:16:09;;;;;;;44.00;22.87;;;;;;;;;;5037865;28;20647;-68
2022/12/18 05:18:35;;;;;;;51.07;23.60;;;;;;;;;;5029804;28;20569;-68
2022/12/18 05:21:00;;;;;;;44.37;23.80;;;;;;;;;;5026158;28;20194;-68
2022/12/18 05:23:26;;;;;;;47.63;23.87;;;;;;;;;;5033900;28;20259;-70
2022/12/18 05:25:52;;;;;;;45.70;24.20;;;;;;;;;;5035834;28;20187;-68
2022/12/18 05:28:17;;;;;;;45.37;23.30;;;;;;;;;;5031740;28;20194;-68
2022/12/18 05:30:42;;;;;;;50.10;23.60;;;;;;;;;;5034516;28;20178;-68
2022/12/18 05:33:07;;;;;;;46.43;22.03;;;;;;;;;;5035294;28;20211;-68
2022/12/18 05:35:32;;;;;;;45.33;22.17;;;;;;;;;;5026534;28;20197;-67
2022/12/18 05:37:58;;;;;;;44.93;22.13;;;;;;;;;;5029127;28;20656;-68
2022/12/18 05:40:23;;;;;;;41.30;22.77;;;;;;;;;;5030762;28;20188;-69
2022/12/18 05:42:48;;;;;;;42.37;22.10;;;;;;;;;;5029780;28;20288;-69
2022/12/18 05:45:13;;;;;;;39.53;20.63;;;;;;;;;;5036052;28;20200;-68
2022/12/18 05:47:38;;;;;;;38.97;20.13;;;;;;;;;;5035265;28;20211;-68
2022/12/18 05:50:04;;;;;;;43.23;21.37;;;;;;;;;;5026512;28;20182;-69
2022/12/18 05:52:30;;;;;;;37.00;18.27;;;;;;;;;;5034103;28;20210;-69
2022/12/18 05:54:55;;;;;;;42.77;19.83;;;;;;;;;;5030181;28;20179;-69
2022/12/18 05:57:20;;;;;;;35.73;19.40;;;;;;;;;;5037504;28;20189;-68
2022/12/18 05:59:46;;;;;;;36.93;19.83;;;;;;;;;;5034215;28;20186;-68
2022/12/18 06:02:11;;;;;;;31.90;17.03;;;;;;;;;;5016139;28;20625;-68
2022/12/18 06:04:36;;;;;;;36.70;17.20;;;;;;;;;;5028698;28;20231;-68
2022/12/18 06:07:04;;;;;;;35.53;17.93;;;;;;;;;;5035458;28;20194;-68
2022/12/18 06:09:29;;;;;;;32.70;16.40;;;;;;;;;;5037590;28;20229;-69
2022/12/18 06:11:54;;;;;;;32.03;16.83;;;;;;;;;;5030985;28;20178;-68
2022/12/18 06:14:20;;;;;;;28.83;15.37;;;;;;;;;;5035652;28;20210;-68
2022/12/18 06:16:45;;;;;;;31.50;15.23;;;;;;;;;;5032375;28;20505;-69
2022/12/18 06:19:14;;;;;;;31.33;16.37;;;;;;;;;;5026769;28;20204;-68
2022/12/18 06:21:39;;;;;;;30.17;15.87;;;;;;;;;;5035719;28;20194;-69
2022/12/18 06:24:04;;;;;;;35.27;16.23;;;;;;;;;;5031787;28;20200;-69
2022/12/18 06:26:29;;;;;;;29.20;14.67;;;;;;;;;;5037616;28;20188;-68
2022/12/18 06:28:55;;;;;;;34.83;15.97;;;;;;;;;;5029347;28;20187;-69
2022/12/18 06:31:20;;;;;;;30.13;15.87;;;;;;;;;;5026431;28;20216;-69
2022/12/18 06:33:45;;;;;;;32.83;16.80;;;;;;;;;;5036321;28;20214;-69
2022/12/18 06:36:11;;;;;;;29.87;14.17;;;;;;;;;;5028314;28;20175;-68
2022/12/18 06:38:38;;;;;;;28.77;14.90;;;;;;;;;;5030516;28;20675;-68
2022/12/18 06:41:22;;;;;;;27.93;15.73;;;;;;;;;;5028878;28;20599;-69
2022/12/18 06:43:47;;;;;;;30.83;14.13;;;;;;;;;;5028687;28;20209;-68
2022/12/18 06:46:12;;;;;;;31.20;13.90;;;;;;;;;;5028946;28;20183;-67
2022/12/18 06:48:38;;;;;;;26.53;14.17;;;;;;;;;;5031807;28;20197;-68
2022/12/18 06:51:03;;;;;;;22.50;13.13;;;;;;;;;;5031223;28;20183;-68
2022/12/18 06:53:29;;;;;;;30.47;13.80;;;;;;;;;;5032254;28;20290;-68
2022/12/18 06:56:04;;;;;;;25.40;14.33;;;;;;;;;;5036244;28;20551;-68
2022/12/18 06:58:29;;;;;;;24.93;14.73;;;;;;;;;;5029584;28;20653;-69
2022/12/18 07:00:59;;;;;;;23.27;13.07;;;;;;;;;;5025285;28;20282;-68
2022/12/18 07:03:24;;;;;;;30.20;13.27;;;;;;;;;;5025838;28;20660;-68
2022/12/18 07:05:49;;;;;;;26.40;15.33;;;;;;;;;;5034760;28;20201;-68
2022/12/18 07:08:14;;;;;;;28.60;15.37;;;;;;;;;;5023434;28;20235;-68
2022/12/18 07:10:43;;;;;;;26.67;14.33;;;;;;;;;;5032220;28;20163;-68
2022/12/18 07:13:08;;;;;;;27.60;15.33;;;;;;;;;;5030174;28;20223;-69
2022/12/18 07:15:33;;;;;;;28.33;15.37;;;;;;;;;;5033185;28;20683;-68
2022/12/18 07:17:58;;;;;;;25.83;14.97;;;;;;;;;;5032454;28;20205;-69
2022/12/18 07:20:23;;;;;;;24.57;14.53;;;;;;;;;;5026730;28;20183;-69
2022/12/18 07:22:48;;;;;;;26.33;14.47;;;;;;;;;;5027828;28;20191;-69
2022/12/18 07:25:14;;;;;;;26.23;13.93;;;;;;;;;;5034339;28;20794;-68
2022/12/18 07:27:39;;;;;;;23.90;13.20;;;;;;;;;;5032722;28;20197;-68
2022/12/18 07:30:05;;;;;;;28.70;13.37;;;;;;;;;;5034381;28;20206;-68
2022/12/18 07:32:30;;;;;;;24.60;13.43;;;;;;;;;;5033186;28;20202;-68
2022/12/18 07:34:55;;;;;;;24.17;12.93;;;;;;;;;;5034356;28;20180;-68
2022/12/18 07:37:20;;;;;;;28.37;13.53;;;;;;;;;;5025345;28;20178;-68
2022/12/18 07:39:46;;;;;;;24.23;13.13;;;;;;;;;;5028338;28;20178;-69
2022/12/18 07:44:55;;;;;;;25.73;11.97;;;;;;;;;;5034014;28;20538;-68
2022/12/18 07:47:20;;;;;;;26.20;13.90;;;;;;;;;;5032844;28;20190;-68
2022/12/18 07:49:45;;;;;;;25.83;14.27;;;;;;;;;;5033698;28;20654;-69
2022/12/18 07:52:12;;;;;;;26.57;13.10;;;;;;;;;;5032141;28;20186;-67
2022/12/18 07:54:37;;;;;;;24.47;13.87;;;;;;;;;;5031927;28;20187;-69
2022/12/18 07:57:02;;;;;;;25.63;13.27;;;;;;;;;;5031464;28;20236;-68
2022/12/18 07:59:27;;;;;;;24.77;13.87;;;;;;;;;;5031739;28;20228;-68
2022/12/18 08:01:52;;;;;;;27.43;12.90;;;;;;;;;;5037902;28;20561;-69
2022/12/18 08:04:18;;;;;;;26.20;14.37;;;;;;;;;;5035154;28;20219;-68
2022/12/18 08:06:43;;;;;;;25.10;13.80;;;;;;;;;;5031453;28;20260;-69
2022/12/18 08:09:09;;;;;;;27.07;14.03;;;;;;;;;;5032287;28;20636;-68
2022/12/18 08:11:34;;;;;;;28.13;14.40;;;;;;;;;;5031856;28;20198;-69
2022/12/18 08:13:59;;;;;;;24.00;13.53;;;;;;;;;;5033599;28;20732;-69
2022/12/18 08:16:25;;;;;;;24.07;13.23;;;;;;;;;;5032617;28;20241;-68
2022/12/18 08:18:51;;;;;;;30.23;14.00;;;;;;;;;;5019307;28;20186;-68
2022/12/18 08:21:18;;;;;;;25.83;13.83;;;;;;;;;;5031468;28;20180;-68
2022/12/18 08:23:43;;;;;;;28.53;14.27;;;;;;;;;;5030246;28;20208;-69
2022/12/18 08:26:09;;;;;;;27.93;14.20;;;;;;;;;;5030826;28;20235;-68
2022/12/18 08:28:34;;;;;;;25.27;13.17;;;;;;;;;;5029051;28;20583;-68
2022/12/18 08:31:00;;;;;;;23.20;13.57;;;;;;;;;;5031997;28;20181;-68
2022/12/18 08:33:25;;;;;;;24.03;13.27;;;;;;;;;;5031725;28;20275;-68
2022/12/18 08:35:51;;;;;;;25.07;14.63;;;;;;;;;;5032751;28;20170;-68
2022/12/18 08:38:16;;;;;;;27.47;13.20;;;;;;;;;;5032726;28;20190;-68
2022/12/18 08:40:41;;;;;;;24.27;14.10;;;;;;;;;;5029424;28;20533;-68
2022/12/18 08:45:53;;;;;;;24.30;13.00;;;;;;;;;;5029943;28;20208;-68
2022/12/18 08:48:18;;;;;;;26.27;13.67;;;;;;;;;;5034945;28;20237;-67
2022/12/18 08:50:43;;;;;;;21.57;12.93;;;;;;;;;;5027066;28;20167;-67
2022/12/18 08:53:09;;;;;;;25.30;13.57;;;;;;;;;;5026427;28;20186;-67
2022/12/18 08:55:34;;;;;;;26.63;14.80;;;;;;;;;;5027991;28;20174;-68
2022/12/18 08:57:59;;;;;;;26.87;14.10;;;;;;;;;;5025353;28;20664;-68
2022/12/18 09:00:25;;;;;;;24.13;12.60;;;;;;;;;;5029428;28;20193;-68
2022/12/18 09:02:50;;;;;;;22.77;12.63;;;;;;;;;;5030946;28;20846;-68
2022/12/18 09:05:15;;;;;;;24.80;13.07;;;;;;;;;;5032260;28;20189;-68
2022/12/18 09:07:40;;;;;;;24.07;13.90;;;;;;;;;;5032446;28;20252;-68
2022/12/18 09:10:06;;;;;;;27.67;14.40;;;;;;;;;;5030985;28;20632;-67
2022/12/18 09:12:31;;;;;;;23.07;12.87;;;;;;;;;;5027998;28;20194;-68
2022/12/18 09:14:56;;;;;;;23.23;12.53;;;;;;;;;;5031774;28;20182;-68
2022/12/18 09:17:22;;;;;;;24.27;13.03;;;;;;;;;;5031142;28;20224;-68
2022/12/18 09:19:47;;;;;;;23.47;12.73;;;;;;;;;;5026725;28;20662;-68
2022/12/18 09:22:12;;;;;;;25.80;14.07;;;;;;;;;;5028083;28;20182;-67
2022/12/18 09:24:39;;;;;;;23.50;13.17;;;;;;;;;;5032057;28;20248;-68
2022/12/18 09:27:04;;;;;;;24.67;13.30;;;;;;;;;;5032325;28;20656;-68
2022/12/18 09:29:29;;;;;;;25.17;14.07;;;;;;;;;;5024628;28;20203;-69
2022/12/18 09:31:54;;;;;;;26.73;12.97;;;;;;;;;;5030512;28;20240;-69
2022/12/18 09:34:21;;;;;;;22.43;12.77;;;;;;;;;;5032443;22;20735;-75
2022/12/18 09:36:46;;;;;;;25.53;14.70;;;;;;;;;;5028349;28;20551;-75
2022/12/18 09:39:12;;;;;;;25.83;15.00;;;;;;;;;;5030352;28;20192;-74
2022/12/18 09:41:40;;;;;;;20.40;12.80;;;;;;;;;;5030729;28;20186;-75
2022/12/18 09:44:20;;;;;;;22.57;13.57;;;;;;;;;;5027646;28;20565;-75
2022/12/18 09:46:49;;;;;;;24.13;13.27;;;;;;;;;;5027243;28;20252;-75
2022/12/18 09:49:16;;;;;;;23.67;12.40;;;;;;;;;;5035550;28;20212;-75
2022/12/18 09:51:45;;;;;;;20.10;11.93;;;;;;;;;;5029037;28;20598;-75
2022/12/18 09:54:16;;;;;;;21.37;12.77;;;;;;;;;;5030422;28;20206;-75
2022/12/18 09:56:42;;;;;;;23.40;13.13;;;;;;;;;;5037604;28;20200;-75
2022/12/18 09:59:17;;;;;;;26.07;12.30;;;;;;;;;;5022826;28;20571;-75
2022/12/18 10:01:43;;;;;;;25.30;12.70;;;;;;;;;;5017456;28;20178;-75
2022/12/18 10:04:08;;;;;;;20.77;11.77;;;;;;;;;;5030777;28;20894;-75
2022/12/18 10:06:36;;;;;;;23.67;11.83;;;;;;;;;;5028757;28;20178;-75
2022/12/18 10:09:05;;;;;;;20.00;12.53;;;;;;;;;;5027883;28;20216;-75
2022/12/18 10:11:38;;;;;;;19.17;11.47;;;;;;;;;;5028671;28;20190;-75
2022/12/18 10:14:03;;;;;;;27.30;12.97;;;;;;;;;;5025944;28;20255;-75
2022/12/18 10:16:55;;;;;;;22.67;13.43;;;;;;;;;;5030365;28;20311;-73
2022/12/18 10:19:26;;;;;;;20.00;11.03;;;;;;;;;;5028260;28;20652;-73
2022/12/18 10:21:58;;;;;;;24.57;13.27;;;;;;;;;;5029455;28;20170;-73
2022/12/18 10:24:24;;;;;;;21.73;13.13;;;;;;;;;;5024919;28;20272;-73
2022/12/18 10:26:49;;;;;;;19.03;12.17;;;;;;;;;;5030851;28;20739;-73
2022/12/18 10:29:15;;;;;;;25.57;12.63;;;;;;;;;;5030608;28;20177;-73
2022/12/18 10:31:40;;;;;;;23.67;11.40;;;;;;;;;;5027881;28;20186;-73
2022/12/18 10:34:09;;;;;;;25.63;13.10;;;;;;;;;;5025100;28;20267;-74
2022/12/18 10:36:35;;;;;;;18.37;10.77;;;;;;;;;;5031154;28;20185;-73
2022/12/18 10:39:15;;;;;;;22.47;11.27;;;;;;;;;;5034941;28;20170;-74
2022/12/18 10:41:40;;;;;;;24.97;12.90;;;;;;;;;;5033856;28;20177;-75
2022/12/18 10:44:20;;;;;;;16.57;10.73;;;;;;;;;;5036324;28;20194;-75
2022/12/18 10:46:46;;;;;;;23.87;11.70;;;;;;;;;;5033310;28;20304;-75
2022/12/18 10:49:19;;;;;;;19.27;11.03;;;;;;;;;;5030850;28;20185;-74
2022/12/18 10:51:44;;;;;;;19.20;11.30;;;;;;;;;;5026603;28;20181;-75
2022/12/18 10:54:15;;;;;;;19.97;12.10;;;;;;;;;;5029225;28;20267;-75
2022/12/18 10:56:40;;;;;;;20.43;11.70;;;;;;;;;;5033100;28;20868;-74
2022/12/18 10:59:10;;;;;;;20.17;12.50;;;;;;;;;;5033224;28;20261;-74
2022/12/18 11:01:46;;;;;;;20.20;11.03;;;;;;;;;;5033635;28;20181;-75
2022/12/18 11:04:15;;;;;;;20.47;11.07;;;;;;;;;;5032633;28;20252;-73
2022/12/18 11:07:00;;;;;;;20.60;12.03;;;;;;;;;;5032589;28;20201;-74
2022/12/18 11:09:29;;;;;;;18.17;11.53;;;;;;;;;;5034550;28;20733;-73
2022/12/18 11:11:59;;;;;;;21.57;11.90;;;;;;;;;;5033775;28;20174;-75
2022/12/18 11:14:30;;;;;;;18.87;12.00;;;;;;;;;;5034037;28;20285;-75
2022/12/18 11:16:57;;;;;;;18.00;10.93;;;;;;;;;;5030834;28;20189;-74
2022/12/18 11:19:34;;;;;;;17.63;11.00;;;;;;;;;;5020502;28;20328;-74
2022/12/18 11:22:01;;;;;;;19.20;10.83;;;;;;;;;;5031626;28;20184;-75
2022/12/18 11:24:29;;;;;;;20.60;11.63;;;;;;;;;;5033796;28;20204;-74
2022/12/18 11:26:54;;;;;;;19.53;11.10;;;;;;;;;;5032561;28;21103;-75
2022/12/18 11:29:26;;;;;;;20.67;11.13;;;;;;;;;;5035091;28;20273;-75
2022/12/18 11:31:52;;;;;;;19.03;11.43;;;;;;;;;;5033917;28;20174;-75
2022/12/18 11:34:24;;;;;;;21.27;11.73;;;;;;;;;;5041517;28;20213;-75
2022/12/18 11:36:50;;;;;;;18.37;10.90;;;;;;;;;;5032180;28;20260;-75
2022/12/18 11:39:31;;;;;;;18.67;11.10;;;;;;;;;;5033650;28;20253;-75
2022/12/18 11:42:08;;;;;;;16.17;10.10;;;;;;;;;;5029116;28;20258;-75
2022/12/18 11:44:36;;;;;;;15.97;10.37;;;;;;;;;;5037373;28;20317;-75
2022/12/18 11:47:05;;;;;;;19.13;10.97;;;;;;;;;;5030764;28;20217;-75
2022/12/18 11:49:34;;;;;;;18.60;10.70;;;;;;;;;;5036179;28;20186;-75
2022/12/18 11:51:59;;;;;;;21.97;12.33;;;;;;;;;;5030719;28;20192;-75
2022/12/18 11:54:24;;;;;;;20.27;11.73;;;;;;;;;;5031004;28;20217;-75
2022/12/18 11:56:49;;;;;;;20.43;11.53;;;;;;;;;;5032013;28;20196;-74
2022/12/18 11:59:25;;;;;;;22.33;13.27;;;;;;;;;;5028944;28;20537;-75
2022/12/18 12:01:52;;;;;;;16.77;10.50;;;;;;;;;;5028957;28;20899;-75
2022/12/18 12:04:20;;;;;;;18.23;11.97;;;;;;;;;;5030781;28;20217;-75
2022/12/18 12:06:58;;;;;;;19.37;10.57;;;;;;;;;;5029761;28;20201;-75
2022/12/18 12:09:29;;;;;;;21.30;12.27;;;;;;;;;;5035406;28;20213;-76
2022/12/18 12:12:00;;;;;;;18.53;11.20;;;;;;;;;;5030668;28;20189;-75
2022/12/18 12:14:35;;;;;;;16.97;10.27;;;;;;;;;;5032954;28;20194;-75
2022/12/18 12:17:12;;;;;;;16.27;10.70;;;;;;;;;;5044800;28;20194;-75
2022/12/18 12:19:52;;;;;;;16.20;9.83;;;;;;;;;;5029594;28;20340;-75
2022/12/18 12:22:17;;;;;;;20.53;12.67;;;;;;;;;;5013101;28;20183;-75
2022/12/18 12:24:43;;;;;;;21.20;11.57;;;;;;;;;;5031250;28;20198;-76
2022/12/18 12:27:17;;;;;;;21.47;11.80;;;;;;;;;;5036422;28;20676;-75
2022/12/18 12:29:55;;;;;;;20.17;11.47;;;;;;;;;;5033123;28;20174;-75
2022/12/18 12:32:32;;;;;;;20.07;12.00;;;;;;;;;;5031640;28;20682;-75
2022/12/18 12:35:06;;;;;;;17.43;11.20;;;;;;;;;;5043373;28;20193;-76
2022/12/18 12:37:54;;;;;;;18.27;11.80;;;;;;;;;;5020224;28;20224;-74
2022/12/18 12:40:20;;;;;;;19.63;10.90;;;;;;;;;;5029519;28;20198;-74
2022/12/18 12:45:39;;;;;;;16.70;10.80;;;;;;;;;;5029934;28;20707;-74
2022/12/18 12:48:06;;;;;;;17.67;10.77;;;;;;;;;;5027507;28;20209;-74
2022/12/18 12:50:33;;;;;;;19.10;11.70;;;;;;;;;;5031201;28;20318;-75
2022/12/18 12:52:59;;;;;;;20.00;12.50;;;;;;;;;;5031630;28;20195;-74
2022/12/18 12:55:28;;;;;;;17.13;10.63;;;;;;;;;;5033631;28;20273;-75
2022/12/18 12:58:10;;;;;;;21.33;11.23;;;;;;;;;;5029199;28;20230;-74
2022/12/18 13:00:40;;;;;;;20.27;11.07;;;;;;;;;;5031910;28;20236;-74
2022/12/18 13:03:08;;;;;;;16.70;11.17;;;;;;;;;;5030677;28;20587;-74
2022/12/18 13:05:39;;;;;;;14.07;9.37;;;;;;;;;;5027551;28;20182;-74
2022/12/18 13:08:06;;;;;;;19.67;11.43;;;;;;;;;;5025425;28;20672;-74
2022/12/18 13:10:36;;;;;;;20.13;11.57;;;;;;;;;;5032998;28;20237;-75
2022/12/18 13:13:09;;;;;;;17.80;10.73;;;;;;;;;;5029817;28;20263;-74
2022/12/18 13:15:43;;;;;;;23.47;11.20;;;;;;;;;;5029502;28;20182;-74
2022/12/18 13:18:08;;;;;;;18.73;10.30;;;;;;;;;;5027768;28;20218;-74
2022/12/18 13:20:44;;;;;;;19.57;12.13;;;;;;;;;;5029517;28;20336;-75
2022/12/18 13:23:25;;;;;;;19.90;11.57;;;;;;;;;;5027033;28;20206;-74
2022/12/18 13:25:51;;;;;;;19.67;11.27;;;;;;;;;;5026772;28;20181;-75
2022/12/18 13:28:17;;;;;;;19.07;10.97;;;;;;;;;;5022887;28;20206;-74
2022/12/18 13:30:42;;;;;;;18.50;11.30;;;;;;;;;;5029132;28;20170;-75
2022/12/18 13:33:13;;;;;;;17.43;11.07;;;;;;;;;;5030162;28;20287;-75
2022/12/18 13:35:39;;;;;;;18.67;11.50;;;;;;;;;;5031278;28;20210;-75
2022/12/18 13:38:20;;;;;;;21.30;13.67;;;;;;;;;;5029671;28;20233;-74
2022/12/18 13:40:48;;;;;;;19.23;10.43;;;;;;;;;;5030174;28;20242;-75
2022/12/18 13:43:19;;;;;;;18.40;10.70;;;;;;;;;;5030002;28;20205;-76
2022/12/18 13:45:49;;;;;;;18.80;11.53;;;;;;;;;;5026683;28;20182;-74
2022/12/18 13:48:15;;;;;;;18.67;11.83;;;;;;;;;;5030028;28;20285;-74
2022/12/18 13:50:40;;;;;;;20.13;11.60;;;;;;;;;;5027609;28;20262;-74
2022/12/18 13:53:06;;;;;;;14.87;10.33;;;;;;;;;;5031869;28;20285;-75
2022/12/18 13:55:31;;;;;;;20.37;11.37;;;;;;;;;;5025808;28;20184;-74
2022/12/18 13:58:04;;;;;;;18.23;10.97;;;;;;;;;;5029903;28;20182;-75
2022/12/18 14:00:29;;;;;;;19.70;10.73;;;;;;;;;;5028215;28;20527;-75
2022/12/18 14:02:55;;;;;;;20.50;11.70;;;;;;;;;;5028208;28;20197;-75
2022/12/18 14:05:24;;;;;;;19.07;12.33;;;;;;;;;;5027447;28;20182;-75
2022/12/18 14:07:50;;;;;;;20.03;11.37;;;;;;;;;;5029463;28;20752;-75
2022/12/18 14:10:16;;;;;;;20.93;11.40;;;;;;;;;;5029005;28;20174;-75
2022/12/18 14:12:56;;;;;;;19.47;11.07;;;;;;;;;;5029546;28;20568;-75
2022/12/18 14:15:35;;;;;;;18.83;12.43;;;;;;;;;;5029850;28;20257;-75
2022/12/18 14:18:16;;;;;;;19.73;11.23;;;;;;;;;;5028220;28;20178;-75
2022/12/18 14:20:47;;;;;;;21.23;10.50;;;;;;;;;;5031641;28;20182;-75
2022/12/18 14:23:25;;;;;;;16.03;10.47;;;;;;;;;;5030147;28;20224;-75
2022/12/18 14:25:50;;;;;;;19.63;12.07;;;;;;;;;;5028084;28;20178;-75
2022/12/18 14:28:16;;;;;;;24.77;12.90;;;;;;;;;;5026603;28;20209;-75
2022/12/18 14:30:43;;;;;;;16.53;10.33;;;;;;;;;;5030590;28;20174;-75